createdAt,value
2023-06-02T00:03:31.328Z,13.75
2023-06-02T00:07:34.808Z,13.66
2023-06-02T00:11:40.067Z,13.52
2023-06-02T00:15:44.631Z,13.49
2023-06-02T00:19:48.637Z,13.55
2023-06-02T00:23:52.111Z,13.62
2023-06-02T00:27:55.817Z,13.69
2023-06-02T00:31:59.290Z,13.74
2023-06-02T00:36:03.260Z,13.76
2023-06-02T00:40:08.332Z,13.74
2023-06-02T00:44:11.781Z,13.72
2023-06-02T00:48:15.209Z,13.71
2023-06-02T00:52:20.306Z,13.70
2023-06-02T00:56:24.548Z,13.66
2023-06-02T01:00:28.721Z,13.64
2023-06-02T01:04:33.038Z,13.57
2023-06-02T01:08:40.513Z,13.55
2023-06-02T01:12:46.272Z,13.57
2023-06-02T01:16:53.182Z,13.59
2023-06-02T01:21:02.409Z,13.55
2023-06-02T01:25:21.132Z,13.46
2023-06-02T01:29:24.513Z,13.30
2023-06-02T01:33:57.008Z,13.18
2023-06-02T01:38:02.532Z,13.05
2023-06-02T01:42:08.676Z,12.99
2023-06-02T01:46:13.380Z,12.95
2023-06-02T01:50:16.792Z,12.90
2023-06-02T01:54:20.316Z,12.84
2023-06-02T01:58:24.219Z,12.80
2023-06-02T02:02:27.697Z,12.75
2023-06-02T02:06:35.739Z,12.67
2023-06-02T02:10:39.126Z,12.61
2023-06-02T02:14:42.652Z,12.55
2023-06-02T02:18:47.537Z,12.53
2023-06-02T02:22:51.204Z,12.50
2023-06-02T02:26:55.255Z,12.48
2023-06-02T02:31:01.182Z,12.53
2023-06-02T02:35:09.155Z,12.56
2023-06-02T02:39:13.737Z,12.56
2023-06-02T02:43:19.652Z,12.55
2023-06-02T02:47:23.498Z,12.55
2023-06-02T02:51:27.099Z,12.56
2023-06-02T02:55:34.090Z,12.52
2023-06-02T02:59:37.604Z,12.45
2023-06-02T03:03:42.854Z,12.44
2023-06-02T03:07:48.096Z,12.52
2023-06-02T03:11:51.949Z,12.59
2023-06-02T03:15:56.083Z,12.60
2023-06-02T03:20:00.078Z,12.62
2023-06-02T03:24:04.442Z,12.58
2023-06-02T03:28:14.603Z,12.54
2023-06-02T03:32:18.125Z,12.65
2023-06-02T03:36:23.900Z,12.87
2023-06-02T03:40:27.335Z,13.16
2023-06-02T03:44:31.767Z,13.40
2023-06-02T03:48:37.008Z,13.59
2023-06-02T03:52:41.031Z,13.77
2023-06-02T03:56:45.679Z,14.00
2023-06-02T04:00:49.815Z,14.21
2023-06-02T04:04:53.981Z,14.37
2023-06-02T04:09:00.028Z,14.63
2023-06-02T04:13:04.069Z,14.76
2023-06-02T04:17:09.066Z,14.93
2023-06-02T04:21:12.634Z,15.02
2023-06-02T04:25:17.872Z,15.22
2023-06-02T04:29:21.425Z,15.24
2023-06-02T04:33:25.519Z,15.38
2023-06-02T04:37:29.274Z,15.64
2023-06-02T04:41:45.899Z,15.97
2023-06-02T04:45:52.116Z,16.12
2023-06-02T04:49:58.816Z,16.19
2023-06-02T04:54:02.890Z,16.02
2023-06-02T04:58:07.043Z,15.90
2023-06-02T05:02:12.143Z,15.87
2023-06-02T05:06:16.633Z,15.51
2023-06-02T05:10:21.468Z,15.24
2023-06-02T05:14:25.794Z,14.97
2023-06-02T05:18:30.579Z,14.85
2023-06-02T05:22:35.893Z,14.75
2023-06-02T05:26:40.609Z,14.69
2023-06-02T05:30:45.413Z,14.65
2023-06-02T05:34:49.803Z,14.60
2023-06-02T05:38:54.160Z,14.48
2023-06-02T05:42:59.959Z,14.39
2023-06-02T05:47:05.245Z,14.24
2023-06-02T05:51:09.582Z,14.18
2023-06-02T05:55:13.177Z,14.16
2023-06-02T05:59:17.708Z,14.29
2023-06-02T06:03:21.363Z,14.52
2023-06-02T06:07:26.786Z,14.89
2023-06-02T06:11:31.358Z,15.18
2023-06-02T06:15:34.779Z,15.32
2023-06-02T06:19:39.339Z,15.30
2023-06-02T06:23:43.372Z,15.25
2023-06-02T06:27:49.983Z,15.24
2023-06-02T06:31:54.705Z,15.12
2023-06-02T06:35:58.355Z,15.07
2023-06-02T06:40:02.533Z,15.00
2023-06-02T06:44:07.673Z,14.97
2023-06-02T06:48:11.908Z,14.95
2023-06-02T06:52:16.409Z,14.78
2023-06-02T06:56:20.288Z,14.73
2023-06-02T07:00:24.124Z,14.91
2023-06-02T07:04:32.182Z,15.09
2023-06-02T07:08:42.076Z,15.43
2023-06-02T07:12:46.236Z,15.73
2023-06-02T07:16:55.630Z,15.75
2023-06-02T07:20:59.184Z,15.53
2023-06-02T07:25:04.334Z,15.15
2023-06-02T07:29:08.460Z,14.92
2023-06-02T07:33:13.321Z,14.85
2023-06-02T07:37:17.234Z,14.88
2023-06-02T07:41:22.158Z,15.01
2023-06-02T07:45:27.171Z,15.06
2023-06-02T07:49:30.679Z,15.07
2023-06-02T07:53:34.240Z,15.03
2023-06-02T07:57:37.705Z,15.05
2023-06-02T08:01:41.258Z,14.95
2023-06-02T08:05:46.256Z,14.91
2023-06-02T08:09:50.009Z,14.91
2023-06-02T08:13:53.434Z,15.00
2023-06-02T08:17:56.866Z,14.92
2023-06-02T08:22:02.300Z,14.80
2023-06-02T08:26:05.942Z,14.69
2023-06-02T08:30:11.516Z,14.60
2023-06-02T08:34:15.100Z,14.42
2023-06-02T08:38:21.565Z,14.31
2023-06-02T08:42:27.991Z,14.39
2023-06-02T08:46:32.362Z,14.46
2023-06-02T08:50:41.786Z,14.39
2023-06-02T08:54:48.023Z,14.31
2023-06-02T08:58:54.507Z,14.25
2023-06-02T09:02:58.126Z,14.10
2023-06-02T09:07:24.607Z,13.97
2023-06-02T09:11:29.474Z,13.90
2023-06-02T09:15:37.090Z,13.87
2023-06-02T09:19:51.347Z,13.94
2023-06-02T09:24:12.078Z,13.95
2023-06-02T09:28:18.323Z,14.00
2023-06-02T09:32:22.404Z,14.05
2023-06-02T09:36:31.178Z,14.02
2023-06-02T09:40:36.560Z,14.08
2023-06-02T09:45:02.900Z,14.23
2023-06-02T09:49:07.230Z,14.60
2023-06-02T09:53:15.057Z,15.03
2023-06-02T09:57:18.705Z,15.44
2023-06-02T10:01:22.877Z,15.81
2023-06-02T10:05:31.155Z,16.15
2023-06-02T10:10:12.150Z,16.23
2023-06-02T10:14:23.817Z,16.40
2023-06-02T10:18:55.486Z,16.43
2023-06-02T10:23:16.475Z,16.44
2023-06-02T10:27:35.738Z,16.65
2023-06-02T10:31:41.240Z,16.68
2023-06-02T10:36:00.514Z,16.60
2023-06-02T10:40:05.230Z,16.60
2023-06-02T10:44:28.786Z,16.55
2023-06-02T10:48:43.757Z,16.61
2023-06-02T10:53:15.283Z,16.52
2023-06-02T10:57:52.255Z,16.31
2023-06-02T11:01:55.854Z,15.87
2023-06-02T11:06:29.310Z,15.53
2023-06-02T11:10:59.915Z,15.18
2023-06-02T11:15:06.883Z,15.01
2023-06-02T11:19:10.363Z,14.92
2023-06-02T11:23:14.452Z,14.83
2023-06-02T11:27:36.449Z,14.69
2023-06-02T11:31:49.038Z,14.57
2023-06-02T11:35:59.803Z,14.45
2023-06-02T11:40:07.285Z,14.40
2023-06-02T11:44:12.461Z,14.33
2023-06-02T11:48:16.548Z,14.17
2023-06-02T11:52:21.771Z,14.11
2023-06-02T11:56:28.187Z,14.09
2023-06-02T12:00:31.957Z,14.00
2023-06-02T12:04:44.337Z,13.90
2023-06-02T12:08:47.940Z,13.93
2023-06-02T12:12:51.366Z,13.95
2023-06-02T12:17:06.174Z,13.86
2023-06-02T12:21:28.188Z,13.81
2023-06-02T12:25:33.904Z,13.91
2023-06-02T12:29:37.685Z,14.00
2023-06-02T12:33:42.300Z,14.07
2023-06-02T12:37:45.752Z,14.03
2023-06-02T12:41:49.889Z,13.98
2023-06-02T12:45:53.563Z,13.98
2023-06-02T12:49:58.093Z,13.98
2023-06-02T12:54:03.483Z,14.00
2023-06-02T12:58:07.896Z,14.00
2023-06-02T13:02:14.755Z,14.05
2023-06-02T13:06:18.982Z,14.09
2023-06-02T13:10:25.013Z,14.10
2023-06-02T13:14:28.677Z,14.10
2023-06-02T13:18:32.788Z,14.13
2023-06-02T13:22:36.542Z,14.26
2023-06-02T13:26:40.264Z,14.40
2023-06-02T13:30:43.762Z,14.42
2023-06-02T13:34:58.895Z,14.34
2023-06-02T13:39:02.441Z,14.20
2023-06-02T13:43:06.545Z,14.06
2023-06-02T13:47:10.295Z,13.88
2023-06-02T13:51:14.896Z,13.65
2023-06-02T13:55:18.965Z,13.44
2023-06-02T13:59:22.460Z,13.25
2023-06-02T14:03:27.228Z,13.08
2023-06-02T14:07:32.046Z,12.95
2023-06-02T14:11:40.376Z,12.89
2023-06-02T14:15:46.507Z,12.79
2023-06-02T14:20:27.363Z,12.77
2023-06-02T14:24:35.764Z,12.74
2023-06-02T14:28:48.015Z,12.79
2023-06-02T14:32:51.947Z,12.72
2023-06-02T14:36:57.746Z,12.67
2023-06-02T14:41:01.329Z,12.74
2023-06-02T14:45:16.711Z,12.72
2023-06-02T14:49:20.588Z,12.64
2023-06-02T14:53:24.244Z,12.59
2023-06-02T14:57:30.874Z,12.65
2023-06-02T15:01:34.702Z,12.73
2023-06-02T15:05:40.851Z,12.72
2023-06-02T15:09:46.294Z,12.71
2023-06-02T15:13:54.418Z,12.73
2023-06-02T15:17:58.209Z,12.83
2023-06-02T15:22:11.600Z,12.93
2023-06-02T15:26:21.168Z,13.12
2023-06-02T15:30:32.388Z,13.25
2023-06-02T15:34:36.171Z,13.57
2023-06-02T15:38:41.616Z,14.04
2023-06-02T15:42:51.373Z,14.38
2023-06-02T15:46:56.452Z,14.63
2023-06-02T15:51:00.839Z,14.75
2023-06-02T15:55:05.201Z,14.82
2023-06-02T15:59:14.107Z,14.98
2023-06-02T16:03:19.495Z,15.15
2023-06-02T16:07:23.388Z,15.19
2023-06-02T16:11:37.547Z,15.23
2023-06-02T16:15:44.679Z,15.27
2023-06-02T16:19:49.589Z,15.33
2023-06-02T16:23:54.476Z,15.39
2023-06-02T16:28:13.481Z,15.36
2023-06-02T16:32:17.385Z,15.30
2023-06-02T16:36:34.844Z,15.27
2023-06-02T16:40:56.476Z,15.31
2023-06-02T16:45:28.333Z,15.25
2023-06-02T16:49:40.249Z,15.29
2023-06-02T16:58:41.367Z,15.42
2023-06-02T17:03:33.326Z,15.46
2023-06-02T17:08:16.615Z,15.51
2023-06-02T17:12:35.693Z,15.53
2023-06-02T17:16:48.362Z,15.43
2023-06-02T17:26:08.438Z,14.99
2023-06-02T17:30:24.418Z,14.71
2023-06-02T17:58:06.100Z,14.17
2023-06-02T18:04:53.250Z,14.00
2023-06-02T18:09:14.696Z,13.78
2023-06-02T18:14:00.151Z,13.60
2023-06-02T18:18:32.569Z,13.35
2023-06-02T18:22:37.494Z,13.13
2023-06-02T18:26:41.825Z,12.94
2023-06-02T18:30:46.196Z,12.78
2023-06-02T18:34:50.106Z,12.59
2023-06-02T18:38:56.678Z,12.39
2023-06-02T18:43:02.296Z,12.15
2023-06-02T18:47:39.193Z,11.87
2023-06-02T18:53:42.415Z,11.59
2023-06-02T18:59:10.517Z,11.43
2023-06-02T19:05:32.917Z,11.35
2023-06-02T19:11:04.310Z,11.12
2023-06-02T19:16:06.989Z,10.76
2023-06-02T19:26:21.981Z,10.24
2023-06-02T19:34:45.830Z,10.17
2023-06-02T19:37:02.640Z,10.02
2023-06-02T19:41:57.024Z,9.78
2023-06-02T19:50:14.189Z,9.58
2023-06-02T20:03:50.758Z,9.02
2023-06-02T20:08:39.595Z,8.87
2023-06-02T20:13:17.215Z,8.75
2023-06-02T20:18:05.754Z,8.58
2023-06-02T20:24:38.777Z,8.50
2023-06-02T20:33:32.466Z,8.48
2023-06-02T21:13:32.563Z,8.17
2023-06-02T21:34:46.606Z,7.98
2023-06-02T21:39:32.508Z,7.92
2023-06-02T21:44:03.018Z,7.94
2023-06-02T21:48:53.019Z,7.95
2023-06-02T21:54:07.667Z,7.93
2023-06-02T22:00:19.194Z,7.82
2023-06-02T22:17:35.022Z,7.22
2023-06-02T22:23:18.806Z,7.00
2023-06-02T22:34:57.941Z,6.56
2023-06-02T22:38:40.712Z,6.71
2023-06-02T22:42:08.461Z,6.45
2023-06-02T22:47:12.967Z,6.27
2023-06-02T22:53:00.955Z,6.14
2023-06-02T22:59:33.565Z,5.85
2023-06-02T23:03:32.489Z,5.62
2023-06-02T23:08:26.604Z,5.53
2023-06-02T23:13:28.138Z,5.52
2023-06-02T23:20:51.767Z,5.53
2023-06-02T23:25:00.999Z,5.43
2023-06-02T23:30:17.470Z,5.40
2023-06-02T23:42:20.947Z,5.16
2023-06-02T23:47:50.371Z,5.04
2023-06-02T23:52:09.854Z,4.91
2023-06-02T23:57:08.385Z,4.79
